Time;durP1;ratioP1;P1;durP2;ratioP2;P2;SDS_P1;SDS_P2;PMS_P1;PMS_P2;Temp;Humidity;BMP_temperature;BMP_pressure;BME280_temperature;BME280_humidity;BME280_pressure;Samples;Min_cycle;Max_cycle;Signal;HPM_P1;HPM_P2
2022/10/16 00:00:35;;;;;;;29.98;13.65;;;12.90;99.90;;;;;;6340870;22;20030;-82
2022/10/16 00:03:02;;;;;;;36.40;16.35;;;12.90;99.90;;;;;;6341423;22;19995;-81
2022/10/16 00:05:28;;;;;;;35.70;15.52;;;12.90;99.90;;;;;;6341123;22;19990;-81
2022/10/16 00:07:54;;;;;;;31.98;16.08;;;12.90;99.90;;;;;;6341019;22;20005;-81
2022/10/16 00:10:20;;;;;;;39.17;16.55;;;12.90;99.90;;;;;;6313687;22;20312;-82
2022/10/16 00:12:46;;;;;;;38.35;16.33;;;12.90;99.90;;;;;;6313488;22;19999;-80
2022/10/16 00:15:12;;;;;;;34.65;15.18;;;12.90;99.90;;;;;;6339660;22;20353;-83
2022/10/16 00:17:38;;;;;;;26.77;13.95;;;12.90;99.90;;;;;;6338629;22;19999;-81
2022/10/16 00:20:04;;;;;;;28.95;13.88;;;12.80;99.90;;;;;;6338678;22;20064;-80
2022/10/16 00:22:30;;;;;;;32.00;14.35;;;12.70;99.90;;;;;;6311339;22;20027;-81
2022/10/16 00:24:56;;;;;;;37.00;17.33;;;12.70;99.90;;;;;;6339277;22;20396;-80
2022/10/16 00:27:22;;;;;;;39.33;18.52;;;12.70;99.90;;;;;;6339292;22;20061;-81
2022/10/16 00:29:52;;;;;;;39.08;17.13;;;12.70;99.90;;;;;;6311933;22;19995;-81
2022/10/16 00:32:19;;;;;;;41.53;21.60;;;12.70;99.90;;;;;;6340877;22;19991;-81
2022/10/16 00:34:45;;;;;;;35.95;18.20;;;12.70;99.90;;;;;;6340903;22;20006;-82
2022/10/16 00:37:12;;;;;;;36.22;17.70;;;12.70;99.90;;;;;;6341022;22;19991;-79
2022/10/16 00:39:37;;;;;;;37.97;16.23;;;12.70;99.90;;;;;;6340451;22;20307;-81
2022/10/16 00:42:03;;;;;;;31.85;15.70;;;12.70;99.90;;;;;;6340723;22;20003;-81
2022/10/16 00:44:47;;;;;;;41.38;18.02;;;12.60;99.90;;;;;;6313273;22;20046;-81
2022/10/16 00:47:20;;;;;;;45.17;17.70;;;12.60;99.90;;;;;;6340875;22;19994;-79
2022/10/16 00:49:48;;;;;;;34.33;17.48;;;12.60;99.90;;;;;;6313235;22;20406;-79
2022/10/16 00:52:14;;;;;;;40.30;17.13;;;12.60;99.90;;;;;;6340891;22;19998;-81
2022/10/16 00:54:40;;;;;;;34.40;18.30;;;12.50;99.90;;;;;;6340739;22;20037;-81
2022/10/16 00:57:08;;;;;;;34.90;17.67;;;12.50;99.90;;;;;;6340191;22;19995;-81
2022/10/16 00:59:38;;;;;;;46.65;19.30;;;12.50;99.90;;;;;;6340669;22;19999;-80
2022/10/16 01:02:08;;;;;;;44.15;20.38;;;12.40;99.90;;;;;;6340878;22;20068;-79
2022/10/16 01:04:42;;;;;;;44.45;20.13;;;12.40;99.90;;;;;;6340465;22;20342;-80
2022/10/16 01:07:08;;;;;;;38.05;19.83;;;12.40;99.90;;;;;;6340693;22;20415;-82
2022/10/16 01:09:42;;;;;;;43.67;19.13;;;12.40;99.90;;;;;;6340122;22;20019;-80
2022/10/16 01:12:27;;;;;;;46.33;19.50;;;12.30;99.90;;;;;;6340864;22;19995;-79
2022/10/16 01:14:55;;;;;;;36.83;17.63;;;12.30;99.90;;;;;;6340626;22;19997;-81
2022/10/16 01:17:41;;;;;;;31.50;16.77;;;12.20;99.90;;;;;;6312736;22;20085;-82
2022/10/16 01:20:19;;;;;;;29.52;15.13;;;12.20;99.90;;;;;;6340674;22;19995;-82
2022/10/16 01:22:51;;;;;;;35.50;17.50;;;12.20;99.90;;;;;;6340332;22;19995;-81
2022/10/16 01:25:47;;;;;;;36.83;17.13;;;12.20;99.90;;;;;;6339953;22;20415;-82
2022/10/16 01:28:15;;;;;;;35.33;17.48;;;12.20;99.90;;;;;;6292044;22;19995;-81
2022/10/16 01:30:43;;;;;;;29.33;16.63;;;12.10;99.90;;;;;;6312870;22;20048;-80
2022/10/16 01:33:20;;;;;;;36.25;16.98;;;12.10;99.90;;;;;;6312398;22;20080;-80
2022/10/16 01:35:55;;;;;;;35.00;16.73;;;12.00;99.90;;;;;;6339762;22;19997;-82
2022/10/16 01:38:35;;;;;;;38.95;16.25;;;12.00;99.90;;;;;;6339696;22;20018;-80
2022/10/16 01:41:29;;;;;;;35.45;17.10;;;12.00;99.90;;;;;;6339602;22;20002;-82
2022/10/16 01:44:01;;;;;;;37.42;18.08;;;11.90;99.90;;;;;;6331914;22;20423;-81
2022/10/16 01:46:28;;;;;;;39.72;18.70;;;11.90;99.90;;;;;;6312331;22;20350;-81
2022/10/16 01:48:55;;;;;;;33.40;17.50;;;11.80;99.90;;;;;;6339861;22;19991;-80
2022/10/16 01:51:23;;;;;;;39.67;18.40;;;11.80;99.90;;;;;;6339827;22;20415;-80
2022/10/16 01:53:54;;;;;;;33.90;17.00;;;11.70;99.90;;;;;;6339830;22;19999;-79
2022/10/16 01:56:22;;;;;;;32.17;15.53;;;11.70;99.90;;;;;;6339909;22;19995;-81
2022/10/16 01:59:05;;;;;;;30.90;15.75;;;11.70;99.90;;;;;;6339665;22;20218;-82
2022/10/16 02:01:34;;;;;;;34.00;15.07;;;11.70;99.90;;;;;;6311662;22;19995;-81
2022/10/16 02:04:07;;;;;;;31.27;15.70;;;11.70;99.90;;;;;;6339600;22;19999;-80
2022/10/16 02:06:33;;;;;;;34.47;14.77;;;11.60;99.90;;;;;;6339860;22;19991;-80
2022/10/16 02:08:59;;;;;;;32.28;14.38;;;11.70;99.90;;;;;;6339952;22;20053;-81
2022/10/16 02:11:25;;;;;;;29.50;14.60;;;11.70;99.90;;;;;;6312071;22;20022;-82
2022/10/16 02:13:58;;;;;;;30.27;14.07;;;11.70;99.90;;;;;;6339216;22;20423;-79
2022/10/16 02:16:36;;;;;;;33.85;14.48;;;11.70;99.90;;;;;;6339763;22;20300;-80
2022/10/16 02:19:02;;;;;;;40.95;17.58;;;11.70;99.90;;;;;;6339332;22;20418;-79
2022/10/16 02:21:43;;;;;;;37.35;17.67;;;11.70;99.90;;;;;;6311623;22;20068;-79
2022/10/16 02:24:15;;;;;;;41.83;18.27;;;11.70;99.90;;;;;;6339431;22;19999;-79
2022/10/16 02:26:49;;;;;;;;;;;11.70;99.90;;;;;;6311992;22;20085;-78
2022/10/16 02:29:18;;;;;;;39.05;19.08;;;11.70;99.90;;;;;;6340009;22;20376;-78
2022/10/16 02:31:58;;;;;;;41.60;18.23;;;11.60;99.90;;;;;;6339594;22;20337;-77
2022/10/16 02:34:27;;;;;;;33.92;17.55;;;11.50;99.90;;;;;;6339200;22;20055;-78
2022/10/16 02:36:54;;;;;;;32.53;17.58;;;11.50;99.90;;;;;;6339591;22;20006;-79
2022/10/16 02:39:21;;;;;;;33.63;17.85;;;11.40;99.90;;;;;;6339470;22;19987;-78
2022/10/16 02:41:47;;;;;;;27.35;16.48;;;11.40;99.90;;;;;;6339215;22;20015;-77
2022/10/16 02:44:13;;;;;;;35.13;17.52;;;11.40;99.90;;;;;;6339610;22;19995;-79
2022/10/16 02:46:39;;;;;;;38.22;17.50;;;11.30;99.90;;;;;;6339403;22;20001;-78
2022/10/16 02:49:05;;;;;;;31.83;18.02;;;11.20;99.90;;;;;;6338907;22;20069;-78
2022/10/16 02:51:30;;;;;;;39.95;20.77;;;11.20;99.90;;;;;;6338985;22;20399;-78
2022/10/16 02:53:56;;;;;;;42.67;22.02;;;11.20;99.90;;;;;;6339329;22;20003;-81
2022/10/16 02:56:22;;;;;;;46.97;21.98;;;11.20;99.90;;;;;;6339281;22;19987;-79
2022/10/16 02:58:48;;;;;;;45.03;23.05;;;11.10;99.90;;;;;;6339412;22;20035;-79
2022/10/16 03:01:16;;;;;;;46.67;23.17;;;11.10;99.90;;;;;;6311707;22;19998;-78
2022/10/16 03:03:42;;;;;;;41.38;21.90;;;11.00;99.90;;;;;;6311724;22;20003;-77
2022/10/16 03:06:08;;;;;;;44.65;23.27;;;11.00;99.90;;;;;;6339588;22;20445;-79
2022/10/16 03:08:34;;;;;;;47.20;24.85;;;10.90;99.90;;;;;;6311769;22;19994;-78
2022/10/16 03:11:00;;;;;;;65.25;34.97;;;10.90;99.90;;;;;;6339777;22;20032;-78
2022/10/16 03:13:25;;;;;;;60.92;31.75;;;10.90;99.90;;;;;;6339412;22;19994;-79
2022/10/16 03:15:51;;;;;;;55.83;32.03;;;10.80;99.90;;;;;;6311676;22;20048;-80
2022/10/16 03:18:17;;;;;;;59.97;29.73;;;10.80;99.90;;;;;;6339728;22;20010;-80
2022/10/16 03:20:43;;;;;;;55.65;26.98;;;10.70;99.90;;;;;;6339606;22;19998;-78
2022/10/16 03:23:09;;;;;;;51.20;27.15;;;10.70;99.90;;;;;;6339035;22;19995;-78
2022/10/16 03:25:35;;;;;;;54.67;28.77;;;10.70;99.90;;;;;;6339412;22;20311;-78
2022/10/16 03:28:01;;;;;;;48.53;26.52;;;10.60;99.90;;;;;;6311723;22;19991;-79
2022/10/16 03:30:27;;;;;;;51.25;26.15;;;10.60;99.90;;;;;;6314440;22;20003;-80
2022/10/16 03:32:53;;;;;;;42.67;23.50;;;10.60;99.90;;;;;;6315298;22;20058;-81
2022/10/16 03:35:24;;;;;;;43.78;23.33;;;10.50;99.90;;;;;;6341643;22;20018;-79
2022/10/16 03:37:50;;;;;;;50.85;26.67;;;10.50;99.90;;;;;;6341548;22;19994;-79
2022/10/16 03:40:17;;;;;;;52.80;29.42;;;10.50;99.90;;;;;;6314902;22;20415;-80
2022/10/16 03:42:43;;;;;;;63.85;33.97;;;10.50;99.90;;;;;;6342624;22;20010;-80
2022/10/16 03:45:10;;;;;;;64.32;34.40;;;10.50;99.90;;;;;;6342196;22;20395;-79
2022/10/16 03:47:36;;;;;;;66.68;33.65;;;10.50;99.90;;;;;;6342391;22;20399;-80
2022/10/16 03:50:03;;;;;;;65.90;33.17;;;10.40;99.90;;;;;;6342183;22;20001;-79
2022/10/16 03:52:28;;;;;;;63.63;31.10;;;10.40;99.90;;;;;;6314700;22;20407;-80
2022/10/16 03:54:54;;;;;;;71.00;31.45;;;10.40;99.90;;;;;;6342054;22;20041;-79
2022/10/16 03:57:20;;;;;;;55.78;29.25;;;10.40;99.90;;;;;;6342457;22;20307;-79
2022/10/16 03:59:46;;;;;;;54.67;29.40;;;10.40;99.90;;;;;;6342435;22;19991;-79
2022/10/16 04:02:12;;;;;;;59.47;29.60;;;10.40;99.90;;;;;;6342412;22;19998;-79
2022/10/16 04:04:38;;;;;;;58.00;28.23;;;10.40;99.90;;;;;;6341973;22;20354;-80
2022/10/16 04:07:03;;;;;;;56.33;28.08;;;10.40;99.90;;;;;;6314680;22;20006;-79
2022/10/16 04:09:29;;;;;;;55.97;28.85;;;10.30;99.90;;;;;;6342143;22;20023;-78
2022/10/16 04:11:55;;;;;;;47.83;25.80;;;10.40;99.90;;;;;;6342124;22;20022;-80
2022/10/16 04:14:21;;;;;;;44.08;23.35;;;10.40;99.90;;;;;;6314734;22;19999;-78
2022/10/16 04:16:46;;;;;;;39.90;22.60;;;10.40;99.90;;;;;;6314504;22;20003;-81
2022/10/16 04:19:13;;;;;;;40.47;22.95;;;10.30;99.90;;;;;;6342527;22;19998;-80
2022/10/16 04:21:38;;;;;;;42.65;22.55;;;10.30;99.90;;;;;;6342188;22;20395;-82
2022/10/16 04:24:04;;;;;;;50.17;24.20;;;10.30;99.90;;;;;;6314423;22;20030;-78
2022/10/16 04:26:30;;;;;;;46.28;24.77;;;10.30;99.90;;;;;;6314476;22;20102;-80
2022/10/16 04:28:56;;;;;;;43.53;25.38;;;10.30;99.90;;;;;;6314600;22;20240;-80
2022/10/16 04:31:22;;;;;;;46.95;22.95;;;10.20;99.90;;;;;;6314179;22;20002;-80
2022/10/16 04:33:48;;;;;;;40.33;22.05;;;10.20;99.90;;;;;;6342094;22;19995;-80
2022/10/16 04:36:14;;;;;;;37.10;21.75;;;10.20;99.90;;;;;;6314209;22;20400;-80
2022/10/16 04:38:39;;;;;;;33.35;20.98;;;10.20;99.90;;;;;;6341513;22;20386;-80
2022/10/16 04:41:06;;;;;;;40.35;21.73;;;10.20;99.90;;;;;;6311082;22;20011;-80
2022/10/16 04:43:33;;;;;;;43.47;21.75;;;10.20;99.90;;;;;;6339362;22;20308;-82
2022/10/16 04:45:59;;;;;;;37.33;21.02;;;10.20;99.90;;;;;;6337782;22;20065;-79
2022/10/16 04:48:25;;;;;;;36.95;21.88;;;10.20;99.90;;;;;;6337525;22;19990;-82
2022/10/16 04:50:51;;;;;;;47.75;24.50;;;10.10;99.90;;;;;;6338113;22;19991;-81
2022/10/16 04:53:17;;;;;;;47.03;23.75;;;10.10;99.90;;;;;;6338301;22;19995;-82
2022/10/16 04:55:43;;;;;;;44.78;24.42;;;10.00;99.90;;;;;;6337688;22;20001;-81
2022/10/16 04:58:09;;;;;;;96.07;48.55;;;10.00;99.90;;;;;;6337771;22;20061;-81
2022/10/16 05:00:36;;;;;;;100.10;53.33;;;10.00;99.90;;;;;;6312072;22;20374;-80
2022/10/16 05:03:05;;;;;;;102.18;51.20;;;10.00;99.90;;;;;;6313054;22;20082;-80
2022/10/16 05:05:31;;;;;;;73.88;36.47;;;10.00;99.90;;;;;;6340660;22;19999;-79
2022/10/16 05:07:57;;;;;;;62.40;33.20;;;10.00;99.90;;;;;;6340464;22;20001;-79
2022/10/16 05:10:23;;;;;;;54.78;26.05;;;10.00;99.90;;;;;;6313300;22;19999;-81
2022/10/16 05:12:49;;;;;;;45.78;23.88;;;10.00;99.90;;;;;;6340323;22;20002;-80
2022/10/16 05:15:15;;;;;;;49.40;23.10;;;10.00;99.90;;;;;;6340130;22;19995;-80
2022/10/16 05:17:41;;;;;;;45.80;22.45;;;10.00;99.90;;;;;;6340778;22;20001;-81
2022/10/16 05:20:07;;;;;;;54.10;24.10;;;10.00;99.90;;;;;;6340135;22;20001;-84
2022/10/16 05:22:33;;;;;;;45.20;23.58;;;10.00;99.90;;;;;;6312850;22;20276;-81
2022/10/16 05:24:58;;;;;;;53.17;25.33;;;10.00;99.90;;;;;;6312890;22;20468;-81
2022/10/16 05:27:24;;;;;;;45.53;25.48;;;9.90;99.90;;;;;;6340410;22;19991;-82
2022/10/16 05:29:50;;;;;;;48.53;25.45;;;9.90;99.90;;;;;;6340369;22;19994;-79
2022/10/16 05:32:17;;;;;;;51.10;27.95;;;9.90;99.90;;;;;;6340552;22;20003;-79
2022/10/16 05:34:43;;;;;;;60.45;30.20;;;9.90;99.90;;;;;;6312321;22;20006;-82
2022/10/16 05:37:11;;;;;;;53.47;31.55;;;10.00;99.90;;;;;;6312174;22;19995;-81
2022/10/16 05:39:37;;;;;;;62.83;33.00;;;10.00;99.90;;;;;;6339639;22;19991;-79
2022/10/16 05:42:04;;;;;;;59.70;28.15;;;10.10;99.90;;;;;;6312029;22;20018;-81
2022/10/16 05:44:29;;;;;;;52.17;27.30;;;10.10;99.90;;;;;;6312082;22;20025;-81
2022/10/16 05:46:55;;;;;;;45.08;25.48;;;10.10;99.90;;;;;;6339875;22;20044;-80
2022/10/16 05:49:21;;;;;;;51.03;27.65;;;10.10;99.90;;;;;;6339638;22;20412;-80
2022/10/16 05:51:47;;;;;;;52.13;29.30;;;10.10;99.90;;;;;;6339888;22;20021;-81
2022/10/16 05:54:12;;;;;;;49.42;27.50;;;10.10;99.90;;;;;;6339470;22;19998;-80
2022/10/16 05:56:38;;;;;;;57.08;29.48;;;10.10;99.90;;;;;;6312054;22;20337;-82
2022/10/16 05:59:04;;;;;;;50.47;27.90;;;10.10;99.90;;;;;;6312092;22;19998;-80
2022/10/16 06:01:30;;;;;;;53.20;30.45;;;10.10;99.90;;;;;;6339146;22;20002;-81
2022/10/16 06:03:57;;;;;;;48.20;26.60;;;10.20;99.90;;;;;;6339095;22;20347;-80
2022/10/16 06:06:25;;;;;;;48.00;26.73;;;10.30;99.90;;;;;;6339851;22;20431;-81
2022/10/16 06:08:52;;;;;;;44.97;26.45;;;10.30;99.90;;;;;;6339571;22;19998;-80
2022/10/16 06:11:20;;;;;;;40.35;23.85;;;10.40;99.90;;;;;;6339517;22;20033;-81
2022/10/16 06:13:54;;;;;;;44.40;22.73;;;10.50;99.90;;;;;;6339279;22;20028;-79
2022/10/16 06:16:21;;;;;;;39.13;23.30;;;10.50;99.90;;;;;;6339656;22;19995;-80
2022/10/16 06:18:47;;;;;;;39.90;22.45;;;10.60;99.90;;;;;;6311818;22;20056;-79
2022/10/16 06:21:21;;;;;;;36.28;22.17;;;10.70;99.90;;;;;;6339518;22;19995;-78
2022/10/16 06:23:48;;;;;;;29.58;18.75;;;10.80;99.90;;;;;;6339529;22;20007;-78
2022/10/16 06:26:17;;;;;;;34.22;20.23;;;10.90;99.90;;;;;;6339341;22;20332;-80
2022/10/16 06:28:43;;;;;;;35.80;20.67;;;11.00;99.90;;;;;;6339725;22;20045;-78
2022/10/16 06:31:10;;;;;;;35.75;19.40;;;11.10;99.90;;;;;;6339752;22;19995;-80
2022/10/16 06:33:36;;;;;;;32.63;18.42;;;11.30;99.90;;;;;;6339354;22;19998;-80
2022/10/16 06:36:11;;;;;;;36.67;23.40;;;11.40;99.90;;;;;;6339519;22;19995;-80
2022/10/16 06:38:37;;;;;;;32.92;19.08;;;11.60;99.90;;;;;;6339189;22;19999;-80
2022/10/16 06:41:04;;;;;;;34.33;15.40;;;11.70;99.90;;;;;;6338965;22;20009;-82
2022/10/16 06:43:36;;;;;;;25.55;15.38;;;11.80;99.90;;;;;;6339141;22;20063;-82
2022/10/16 06:46:04;;;;;;;33.03;15.38;;;12.00;99.90;;;;;;6339228;22;19998;-82
2022/10/16 06:48:31;;;;;;;24.73;15.00;;;12.10;99.90;;;;;;6312243;22;19990;-82
2022/10/16 06:51:03;;;;;;;28.02;16.77;;;12.20;99.90;;;;;;6338846;22;20311;-79
2022/10/16 06:53:33;;;;;;;30.17;17.45;;;12.30;99.90;;;;;;6311281;22;20359;-81
2022/10/16 06:56:10;;;;;;;33.40;20.80;;;12.40;99.90;;;;;;6311624;22;19995;-80
2022/10/16 06:58:36;;;;;;;37.90;22.23;;;12.50;99.90;;;;;;6339324;22;19995;-83
2022/10/16 07:01:03;;;;;;;36.05;19.58;;;12.60;99.90;;;;;;6311431;22;19991;-79
2022/10/16 07:03:29;;;;;;;36.45;19.95;;;12.60;99.90;;;;;;6311454;22;19994;-79
2022/10/16 07:05:54;;;;;;;37.40;21.80;;;12.70;99.90;;;;;;6339832;22;19997;-81
2022/10/16 07:08:20;;;;;;;36.50;20.95;;;12.80;99.90;;;;;;6339620;22;19990;-79
2022/10/16 07:10:46;;;;;;;44.08;22.75;;;12.80;99.90;;;;;;6339548;22;20514;-82
2022/10/16 07:13:14;;;;;;;45.88;23.17;;;12.80;99.90;;;;;;6339795;22;20013;-81
2022/10/16 07:15:40;;;;;;;37.78;22.40;;;12.90;99.90;;;;;;6339577;22;19991;-82
2022/10/16 07:18:06;;;;;;;42.38;25.60;;;13.00;99.90;;;;;;6338519;22;19998;-79
2022/10/16 07:20:32;;;;;;;40.10;24.30;;;13.00;99.90;;;;;;6339067;22;20300;-80
2022/10/16 07:22:58;;;;;;;44.67;25.70;;;13.10;99.90;;;;;;6337993;22;19991;-79
2022/10/16 07:25:24;;;;;;;44.15;25.23;;;13.20;99.90;;;;;;6338825;22;20003;-81
2022/10/16 07:27:50;;;;;;;37.95;19.92;;;13.40;99.90;;;;;;6311664;22;20073;-83
2022/10/16 07:30:15;;;;;;;38.67;21.23;;;13.40;99.90;;;;;;6339453;22;19991;-80
2022/10/16 07:32:41;;;;;;;38.47;22.70;;;13.50;99.90;;;;;;6339606;22;19995;-81
2022/10/16 07:35:08;;;;;;;43.10;23.85;;;13.70;99.90;;;;;;6339100;22;20281;-80
2022/10/16 07:37:33;;;;;;;41.22;24.08;;;13.80;99.90;;;;;;6339438;22;20387;-80
2022/10/16 07:39:59;;;;;;;51.80;25.90;;;14.00;99.90;;;;;;6338998;22;20057;-79
2022/10/16 07:42:25;;;;;;;43.25;25.30;;;14.10;99.90;;;;;;6339126;22;20424;-83
2022/10/16 07:44:50;;;;;;;38.35;22.67;;;14.30;99.90;;;;;;6338975;22;20006;-81
2022/10/16 07:47:16;;;;;;;45.90;24.48;;;14.40;99.90;;;;;;6338749;22;19991;-81
2022/10/16 07:49:42;;;;;;;35.38;21.75;;;14.50;99.90;;;;;;6311154;22;20048;-79
2022/10/16 07:52:08;;;;;;;36.13;19.88;;;14.50;99.90;;;;;;6338704;22;19991;-81
2022/10/16 07:54:33;;;;;;;46.63;20.58;;;14.60;99.90;;;;;;6338734;22;20411;-80
2022/10/16 07:56:59;;;;;;;40.17;20.80;;;14.70;99.90;;;;;;6338827;22;19998;-80
2022/10/16 07:59:25;;;;;;;43.63;22.55;;;14.80;99.90;;;;;;6311076;22;20048;-81
2022/10/16 08:01:51;;;;;;;42.55;20.50;;;14.90;99.90;;;;;;6338587;22;19987;-78
2022/10/16 08:04:17;;;;;;;33.55;19.27;;;14.90;99.90;;;;;;6310816;22;20007;-81
2022/10/16 08:06:42;;;;;;;40.05;24.02;;;15.00;99.90;;;;;;6338663;22;19991;-81
2022/10/16 08:09:10;;;;;;;38.15;21.75;;;15.10;99.90;;;;;;6338788;22;20017;-82
2022/10/16 08:11:36;;;;;;;34.53;19.10;;;15.20;99.90;;;;;;6311828;22;19999;-82
2022/10/16 08:14:01;;;;;;;29.00;16.25;;;15.30;99.90;;;;;;6338930;22;20043;-81
2022/10/16 08:16:27;;;;;;;29.15;16.42;;;15.50;99.90;;;;;;6339917;22;19999;-80
2022/10/16 08:18:53;;;;;;;33.53;17.75;;;15.50;99.90;;;;;;6341079;22;19994;-79
2022/10/16 08:21:23;;;;;;;34.78;17.50;;;15.60;99.90;;;;;;6340628;22;20044;-81
2022/10/16 08:23:50;;;;;;;32.22;17.83;;;15.70;99.90;;;;;;6340270;22;20451;-84
2022/10/16 08:26:15;;;;;;;29.27;16.75;;;15.80;99.90;;;;;;6341016;22;19991;-82
2022/10/16 08:28:41;;;;;;;33.63;17.02;;;15.90;99.90;;;;;;6340964;22;20491;-81
2022/10/16 08:31:13;;;;;;;33.63;16.65;;;16.00;99.90;;;;;;6340766;22;19995;-81
2022/10/16 08:33:40;;;;;;;;;;;16.00;99.90;;;;;;6313543;22;19995;-80
2022/10/16 08:36:06;;;;;;;30.83;15.00;;;16.10;99.90;;;;;;6340289;22;19968;-81
2022/10/16 08:38:33;;;;;;;27.23;15.02;;;16.10;99.90;;;;;;6340022;22;19995;-84
2022/10/16 08:41:42;;;;;;;26.83;14.82;;;16.30;99.90;;;;;;6340158;22;20082;-82
2022/10/16 08:44:45;;;;;;;28.85;15.70;;;16.40;99.90;;;;;;6265087;22;20007;-81
2022/10/16 08:47:18;;;;;;;25.17;13.95;;;16.50;99.90;;;;;;6340267;22;19987;-79
2022/10/16 08:49:56;;;;;;;26.15;15.27;;;16.70;99.90;;;;;;6340079;22;19994;-83
2022/10/16 08:52:24;;;;;;;31.67;16.73;;;16.90;99.90;;;;;;6340252;22;19995;-80
2022/10/16 08:54:54;;;;;;;32.88;17.13;;;17.00;99.90;;;;;;6340497;22;19990;-81
2022/10/16 08:57:22;;;;;;;32.05;16.17;;;17.10;99.90;;;;;;6339955;22;20053;-77
2022/10/16 08:59:49;;;;;;;29.05;15.98;;;17.30;99.90;;;;;;6312417;22;19999;-80
2022/10/16 09:02:31;;;;;;;27.15;16.45;;;17.30;99.90;;;;;;6340665;22;19999;-80
2022/10/16 09:05:36;;;;;;;31.38;16.38;;;17.30;99.90;;;;;;6340719;22;20067;-77
2022/10/16 09:08:15;;;;;;;26.02;17.08;;;17.60;99.90;;;;;;6340826;22;19991;-79
2022/10/16 09:10:56;;;;;;;26.63;15.85;;;17.80;99.90;;;;;;6313184;22;19998;-80
2022/10/16 09:13:35;;;;;;;26.50;15.27;;;18.00;99.90;;;;;;6340670;22;20023;-80
2022/10/16 09:16:24;;;;;;;25.50;15.43;;;18.10;99.90;;;;;;6340384;22;19986;-79
2022/10/16 09:18:56;;;;;;;26.80;15.32;;;18.10;99.90;;;;;;6340434;22;19998;-79
2022/10/16 09:21:27;;;;;;;27.90;13.98;;;18.30;99.90;;;;;;6340497;22;19994;-81
2022/10/16 09:23:57;;;;;;;33.55;15.75;;;18.40;99.90;;;;;;6339891;22;20081;-77
2022/10/16 09:26:23;;;;;;;26.65;14.52;;;18.50;99.90;;;;;;6312333;22;20070;-78
2022/10/16 09:28:51;;;;;;;26.15;15.23;;;18.70;99.90;;;;;;6339710;22;20338;-78
2022/10/16 09:31:19;;;;;;;39.95;14.32;;;18.80;99.90;;;;;;6339424;22;20346;-80
2022/10/16 09:33:52;;;;;;;52.42;16.40;;;19.00;99.90;;;;;;6339494;22;19995;-79
2022/10/16 09:36:20;;;;;;;26.10;14.88;;;19.20;99.90;;;;;;6312012;22;20033;-79
2022/10/16 09:38:45;;;;;;;25.13;14.90;;;19.40;99.90;;;;;;6312338;22;20073;-80
2022/10/16 09:41:22;;;;;;;30.25;15.60;;;19.50;99.10;;;;;;6339787;22;20081;-81
2022/10/16 09:43:56;;;;;;;28.63;15.80;;;19.60;97.40;;;;;;6339460;22;20030;-80
2022/10/16 09:46:37;;;;;;;23.75;14.85;;;19.80;99.90;;;;;;6311575;22;20412;-80
2022/10/16 09:49:23;;;;;;;24.50;15.60;;;20.00;98.60;;;;;;6339001;22;19991;-79
2022/10/16 09:51:49;;;;;;;33.63;14.70;;;20.20;94.50;;;;;;6339711;22;20193;-81
2022/10/16 09:54:18;;;;;;;28.30;15.32;;;20.50;94.80;;;;;;6339733;22;20002;-79
2022/10/16 09:56:49;;;;;;;26.42;14.13;;;20.50;91.70;;;;;;6339121;22;20375;-79
2022/10/16 09:59:16;;;;;;;23.80;14.80;;;20.80;92.00;;;;;;6312387;22;20082;-80
2022/10/16 10:01:51;;;;;;;22.23;14.50;;;20.80;91.10;;;;;;6339175;22;20356;-79
2022/10/16 10:04:22;;;;;;;32.30;18.65;;;20.90;92.00;;;;;;6339215;22;20368;-80
2022/10/16 10:06:54;;;;;;;69.25;43.45;;;21.10;92.60;;;;;;6312179;22;20026;-79
2022/10/16 10:09:38;;;;;;;106.22;63.28;;;21.30;90.30;;;;;;6339401;22;20073;-79
2022/10/16 10:12:05;;;;;;;34.65;17.10;;;21.10;90.00;;;;;;6339312;22;20341;-80
2022/10/16 10:14:43;;;;;;;27.23;15.27;;;21.30;87.60;;;;;;6339316;22;20404;-79
2022/10/16 10:17:12;;;;;;;27.75;16.70;;;21.40;85.40;;;;;;6338456;22;20073;-80
2022/10/16 10:20:02;;;;;;;26.15;13.45;;;21.50;88.80;;;;;;6338755;22;20087;-77
2022/10/16 10:22:45;;;;;;;32.45;18.67;;;21.60;82.00;;;;;;6338678;22;19995;-79
2022/10/16 10:25:11;;;;;;;25.60;12.98;;;21.80;85.50;;;;;;6339459;22;20003;-79
2022/10/16 10:27:42;;;;;;;43.08;26.65;;;21.70;78.00;;;;;;6339321;22;19999;-78
2022/10/16 10:30:18;;;;;;;29.15;15.63;;;;;;;;;;6339980;22;19998;-78
2022/10/16 10:33:12;;;;;;;20.45;14.85;;;22.20;78.60;;;;;;6339673;22;20427;-78
2022/10/16 10:36:14;;;;;;;25.85;13.93;;;22.20;76.30;;;;;;6339473;22;20022;-79
2022/10/16 10:38:54;;;;;;;25.08;12.90;;;22.20;78.90;;;;;;6339118;22;19994;-78
2022/10/16 10:41:34;;;;;;;28.80;15.00;;;22.40;75.60;;;;;;6339684;22;20011;-79
2022/10/16 10:44:28;;;;;;;24.42;12.85;;;22.60;76.90;;;;;;6311683;22;20003;-79
2022/10/16 10:47:01;;;;;;;17.83;12.55;;;22.50;77.00;;;;;;6339395;22;20392;-79
2022/10/16 10:49:42;;;;;;;20.48;13.35;;;22.50;74.60;;;;;;6339177;22;20419;-77
2022/10/16 10:52:34;;;;;;;26.50;12.93;;;22.40;74.30;;;;;;6339271;22;19994;-78
2022/10/16 10:55:39;;;;;;;21.83;11.75;;;22.50;71.50;;;;;;6338587;22;20078;-77
2022/10/16 10:58:23;;;;;;;24.27;13.27;;;22.60;72.60;;;;;;6309481;22;20411;-78
2022/10/16 11:01:01;;;;;;;21.83;11.90;;;22.70;73.90;;;;;;6338943;22;20411;-79
2022/10/16 11:03:52;;;;;;;19.15;12.30;;;22.70;71.90;;;;;;6339154;22;19998;-79
2022/10/16 11:06:19;;;;;;;19.42;12.30;;;22.90;72.50;;;;;;6339169;22;20049;-80
2022/10/16 11:08:54;;;;;;;20.63;12.18;;;;;;;;;;6311427;22;20311;-79
2022/10/16 11:11:20;;;;;;;21.58;12.27;;;;;;;;;;6338793;22;20425;-79
2022/10/16 11:13:55;;;;;;;21.65;12.15;;;;;;;;;;6339574;22;19999;-79
2022/10/16 11:16:28;;;;;;;16.20;11.68;;;;;;;;;;6311467;22;19998;-79
2022/10/16 11:19:00;;;;;;;18.15;12.68;;;;;;;;;;6338681;22;20421;-78
2022/10/16 11:21:28;;;;;;;20.50;11.93;;;;;;;;;;6310978;22;19999;-79
2022/10/16 11:24:04;;;;;;;30.85;13.07;;;;;;;;;;6338830;22;20003;-80
2022/10/16 11:26:35;;;;;;;19.27;11.38;;;;;;;;;;6338748;22;19995;-81
2022/10/16 11:29:02;;;;;;;21.70;12.10;;;;;;;;;;6339154;22;19991;-79
2022/10/16 11:31:31;;;;;;;15.65;11.85;;;;;;;;;;6339354;22;20101;-80
2022/10/16 11:34:17;;;;;;;16.98;11.90;;;;;;;;;;6311412;22;20114;-78
2022/10/16 11:37:12;;;;;;;18.90;12.38;;;;;;;;;;6339173;22;19991;-78
2022/10/16 11:39:39;;;;;;;18.65;11.85;;;;;;;;;;6182960;23;20001;-78
2022/10/16 11:42:11;;;;;;;16.77;11.40;;;;;;;;;;6183042;23;20033;-79
2022/10/16 11:44:37;;;;;;;;;;;;;;;;;;6183530;23;20008;-78
2022/10/16 11:47:26;;;;;;;22.70;12.50;;;;;;;;;;6182939;23;19896;-80
2022/10/16 11:50:12;;;;;;;20.55;12.77;;;;;;;;;;6198328;23;19997;-78
2022/10/16 11:52:47;;;;;;;19.65;13.77;;;;;;;;;;6189572;23;20087;-79
2022/10/16 11:55:18;;;;;;;20.95;13.10;;;;;;;;;;6189375;23;20384;-78
2022/10/16 11:57:47;;;;;;;21.08;12.93;;;;;;;;;;6189747;23;20006;-78
2022/10/16 12:00:22;;;;;;;20.17;12.60;;;;;;;;;;6215332;23;20031;-79
2022/10/16 12:02:54;;;;;;;19.20;13.00;;;;;;;;;;6215150;23;19997;-80
2022/10/16 12:05:34;;;;;;;18.98;13.10;;;;;;;;;;6214972;23;20448;-79
2022/10/16 12:08:14;;;;;;;17.40;13.18;;;;;;;;;;6215001;23;20001;-80
2022/10/16 12:10:41;;;;;;;20.88;13.07;;;;;;;;;;6189744;23;20007;-80
2022/10/16 12:13:26;;;;;;;21.58;12.80;;;;;;;;;;6214964;23;20004;-80
2022/10/16 12:15:52;;;;;;;20.08;13.32;;;;;;;;;;6248348;22;20003;-79
2022/10/16 12:18:22;;;;;;;24.10;14.48;;;;;;;;;;6310112;22;19999;-79
2022/10/16 12:20:58;;;;;;;23.98;14.98;;;;;;;;;;6309717;22;19995;-78
2022/10/16 12:23:25;;;;;;;24.92;15.85;;;;;;;;;;6309661;22;19994;-79
2022/10/16 12:25:58;;;;;;;27.02;13.90;;;;;;;;;;6309595;22;20060;-80
2022/10/16 12:28:29;;;;;;;26.20;13.90;;;;;;;;;;6309548;22;20022;-78
2022/10/16 12:31:02;;;;;;;18.88;12.02;;;;;;;;;;6309718;22;20002;-80
2022/10/16 12:33:30;;;;;;;20.35;13.73;;;;;;;;;;6309708;22;20003;-78
2022/10/16 12:35:57;;;;;;;19.98;13.90;;;;;;;;;;6309410;22;20062;-78
2022/10/16 12:38:27;;;;;;;28.67;14.13;;;;;;;;;;6282130;22;20002;-80
2022/10/16 12:41:00;;;;;;;24.58;13.57;;;;;;;;;;6281646;22;20007;-80
2022/10/16 12:43:26;;;;;;;20.08;13.60;;;;;;;;;;6309266;22;20360;-80
2022/10/16 12:46:03;;;;;;;20.50;13.13;;;;;;;;;;6309396;22;20003;-79
2022/10/16 12:48:30;;;;;;;26.92;13.50;;;;;;;;;;6309447;22;20018;-81
2022/10/16 12:50:56;;;;;;;24.48;12.50;;;;;;;;;;6309178;22;19995;-79
2022/10/16 12:53:25;;;;;;;22.80;13.32;;;;;;;;;;6282004;22;19998;-79
2022/10/16 12:55:57;;;;;;;23.45;13.85;;;;;;;;;;6282112;22;20308;-79
2022/10/16 12:58:41;;;;;;;23.45;13.75;;;;;;;;;;6308798;22;19997;-79